You are listening to:
KLNS Ground/Tower - Lancaster, Pennsylvania, United States

KLNS 251753Z VRB04KT 7SM CLR 23/14 A3021 RMK AO2 SLP229 T02280139 10228 20150 58008

If stream doesn't start automatically press the play button
If stream stops then reload player then press play